sensor_id;sensor_type;location;lat;lon;timestamp;P1;durP1;ratioP1;P2;durP2;ratioP2
54897;SDS011;40800;52.704;6.398;2023-04-20T00:00:12;7.03;;;4.63;;
54897;SDS011;40800;52.704;6.398;2023-04-20T00:02:41;8.85;;;4.40;;
54897;SDS011;40800;52.704;6.398;2023-04-20T00:05:07;7.27;;;4.33;;
54897;SDS011;40800;52.704;6.398;2023-04-20T00:07:35;6.18;;;4.07;;
54897;SDS011;40800;52.704;6.398;2023-04-20T00:10:01;7.70;;;4.50;;
54897;SDS011;40800;52.704;6.398;2023-04-20T00:12:27;5.80;;;4.40;;
54897;SDS011;40800;52.704;6.398;2023-04-20T00:14:53;5.93;;;4.60;;
54897;SDS011;40800;52.704;6.398;2023-04-20T00:17:19;8.15;;;4.70;;
54897;SDS011;40800;52.704;6.398;2023-04-20T00:19:45;9.25;;;5.25;;
54897;SDS011;40800;52.704;6.398;2023-04-20T00:22:11;7.35;;;4.65;;
54897;SDS011;40800;52.704;6.398;2023-04-20T00:24:37;8.55;;;4.65;;
54897;SDS011;40800;52.704;6.398;2023-04-20T00:27:02;6.88;;;4.75;;
54897;SDS011;40800;52.704;6.398;2023-04-20T00:29:28;6.63;;;4.90;;
54897;SDS011;40800;52.704;6.398;2023-04-20T00:31:53;9.18;;;4.93;;
54897;SDS011;40800;52.704;6.398;2023-04-20T00:34:19;6.90;;;5.00;;
54897;SDS011;40800;52.704;6.398;2023-04-20T00:36:45;6.47;;;4.78;;
54897;SDS011;40800;52.704;6.398;2023-04-20T00:39:10;6.45;;;4.70;;
54897;SDS011;40800;52.704;6.398;2023-04-20T00:41:36;6.72;;;4.57;;
54897;SDS011;40800;52.704;6.398;2023-04-20T00:44:02;7.97;;;4.70;;
54897;SDS011;40800;52.704;6.398;2023-04-20T00:46:27;6.18;;;4.80;;
54897;SDS011;40800;52.704;6.398;2023-04-20T00:48:53;7.00;;;5.05;;
54897;SDS011;40800;52.704;6.398;2023-04-20T00:51:21;6.38;;;4.95;;
54897;SDS011;40800;52.704;6.398;2023-04-20T00:53:47;7.32;;;4.63;;
54897;SDS011;40800;52.704;6.398;2023-04-20T00:56:13;7.20;;;4.82;;
54897;SDS011;40800;52.704;6.398;2023-04-20T00:58:44;7.45;;;4.45;;
54897;SDS011;40800;52.704;6.398;2023-04-20T01:01:11;7.13;;;4.88;;
54897;SDS011;40800;52.704;6.398;2023-04-20T01:03:37;7.93;;;5.03;;
54897;SDS011;40800;52.704;6.398;2023-04-20T01:06:03;6.88;;;4.97;;
54897;SDS011;40800;52.704;6.398;2023-04-20T01:08:30;6.65;;;4.65;;
54897;SDS011;40800;52.704;6.398;2023-04-20T01:10:55;6.28;;;4.72;;
54897;SDS011;40800;52.704;6.398;2023-04-20T01:13:21;7.22;;;4.72;;
54897;SDS011;40800;52.704;6.398;2023-04-20T01:15:47;7.60;;;4.47;;
54897;SDS011;40800;52.704;6.398;2023-04-20T01:18:13;6.75;;;4.75;;
54897;SDS011;40800;52.704;6.398;2023-04-20T01:20:40;6.70;;;4.60;;
54897;SDS011;40800;52.704;6.398;2023-04-20T01:23:05;6.93;;;4.28;;
54897;SDS011;40800;52.704;6.398;2023-04-20T01:25:31;6.57;;;4.40;;
54897;SDS011;40800;52.704;6.398;2023-04-20T01:27:56;8.00;;;4.28;;
54897;SDS011;40800;52.704;6.398;2023-04-20T01:30:22;6.05;;;3.92;;
54897;SDS011;40800;52.704;6.398;2023-04-20T01:32:48;6.30;;;4.10;;
54897;SDS011;40800;52.704;6.398;2023-04-20T01:35:13;6.55;;;4.38;;
54897;SDS011;40800;52.704;6.398;2023-04-20T01:37:40;6.75;;;4.13;;
54897;SDS011;40800;52.704;6.398;2023-04-20T01:40:09;6.93;;;4.05;;
54897;SDS011;40800;52.704;6.398;2023-04-20T01:42:36;7.05;;;3.92;;
54897;SDS011;40800;52.704;6.398;2023-04-20T01:45:05;6.50;;;3.88;;
54897;SDS011;40800;52.704;6.398;2023-04-20T01:47:31;6.57;;;3.80;;
54897;SDS011;40800;52.704;6.398;2023-04-20T01:49:56;7.72;;;3.92;;
54897;SDS011;40800;52.704;6.398;2023-04-20T01:52:22;6.32;;;3.40;;
54897;SDS011;40800;52.704;6.398;2023-04-20T01:54:47;6.60;;;3.63;;
54897;SDS011;40800;52.704;6.398;2023-04-20T01:57:13;5.05;;;3.53;;
54897;SDS011;40800;52.704;6.398;2023-04-20T01:59:39;6.93;;;3.80;;
54897;SDS011;40800;52.704;6.398;2023-04-20T02:02:04;5.28;;;3.50;;
54897;SDS011;40800;52.704;6.398;2023-04-20T02:04:30;6.40;;;3.45;;
54897;SDS011;40800;52.704;6.398;2023-04-20T02:06:56;7.40;;;3.33;;
54897;SDS011;40800;52.704;6.398;2023-04-20T02:09:21;5.47;;;3.45;;
54897;SDS011;40800;52.704;6.398;2023-04-20T02:11:47;6.38;;;3.75;;
54897;SDS011;40800;52.704;6.398;2023-04-20T02:14:12;5.40;;;3.08;;
54897;SDS011;40800;52.704;6.398;2023-04-20T02:16:38;6.47;;;3.28;;
54897;SDS011;40800;52.704;6.398;2023-04-20T02:19:03;6.03;;;3.30;;
54897;SDS011;40800;52.704;6.398;2023-04-20T02:21:29;6.00;;;3.20;;
54897;SDS011;40800;52.704;6.398;2023-04-20T02:23:55;5.70;;;3.03;;
54897;SDS011;40800;52.704;6.398;2023-04-20T02:26:20;6.40;;;3.00;;
54897;SDS011;40800;52.704;6.398;2023-04-20T02:28:46;5.80;;;3.10;;
54897;SDS011;40800;52.704;6.398;2023-04-20T02:31:12;4.47;;;2.95;;
54897;SDS011;40800;52.704;6.398;2023-04-20T02:33:37;6.30;;;3.20;;
54897;SDS011;40800;52.704;6.398;2023-04-20T02:36:03;5.47;;;3.10;;
54897;SDS011;40800;52.704;6.398;2023-04-20T02:38:28;4.95;;;2.92;;
54897;SDS011;40800;52.704;6.398;2023-04-20T02:40:54;6.53;;;3.13;;
54897;SDS011;40800;52.704;6.398;2023-04-20T02:43:20;5.65;;;3.25;;
54897;SDS011;40800;52.704;6.398;2023-04-20T02:45:45;6.55;;;2.88;;
54897;SDS011;40800;52.704;6.398;2023-04-20T02:48:12;6.28;;;3.17;;
54897;SDS011;40800;52.704;6.398;2023-04-20T02:50:37;5.18;;;3.17;;
54897;SDS011;40800;52.704;6.398;2023-04-20T02:53:03;7.57;;;3.40;;
54897;SDS011;40800;52.704;6.398;2023-04-20T02:55:29;5.65;;;3.15;;
54897;SDS011;40800;52.704;6.398;2023-04-20T02:57:55;6.13;;;3.20;;
54897;SDS011;40800;52.704;6.398;2023-04-20T03:00:20;4.80;;;3.08;;
54897;SDS011;40800;52.704;6.398;2023-04-20T03:02:46;5.78;;;3.08;;
54897;SDS011;40800;52.704;6.398;2023-04-20T03:05:11;7.28;;;3.13;;
54897;SDS011;40800;52.704;6.398;2023-04-20T03:07:37;8.02;;;3.17;;
54897;SDS011;40800;52.704;6.398;2023-04-20T03:10:03;5.20;;;2.90;;
54897;SDS011;40800;52.704;6.398;2023-04-20T03:12:28;4.93;;;2.70;;
54897;SDS011;40800;52.704;6.398;2023-04-20T03:14:55;5.07;;;2.70;;
54897;SDS011;40800;52.704;6.398;2023-04-20T03:17:21;5.80;;;2.90;;
54897;SDS011;40800;52.704;6.398;2023-04-20T03:19:47;7.50;;;3.00;;
54897;SDS011;40800;52.704;6.398;2023-04-20T03:22:12;4.57;;;2.90;;
54897;SDS011;40800;52.704;6.398;2023-04-20T03:24:38;5.82;;;2.90;;
54897;SDS011;40800;52.704;6.398;2023-04-20T03:27:03;6.85;;;3.20;;
54897;SDS011;40800;52.704;6.398;2023-04-20T03:29:29;8.43;;;3.35;;
54897;SDS011;40800;52.704;6.398;2023-04-20T03:31:54;5.25;;;3.00;;
54897;SDS011;40800;52.704;6.398;2023-04-20T03:34:20;8.20;;;3.60;;
54897;SDS011;40800;52.704;6.398;2023-04-20T03:36:46;7.68;;;3.30;;
54897;SDS011;40800;52.704;6.398;2023-04-20T03:39:11;6.53;;;3.15;;
54897;SDS011;40800;52.704;6.398;2023-04-20T03:41:37;6.82;;;2.85;;
54897;SDS011;40800;52.704;6.398;2023-04-20T03:44:02;5.97;;;3.35;;
54897;SDS011;40800;52.704;6.398;2023-04-20T03:46:28;7.45;;;3.13;;
54897;SDS011;40800;52.704;6.398;2023-04-20T03:48:54;7.15;;;3.22;;
54897;SDS011;40800;52.704;6.398;2023-04-20T03:51:19;5.30;;;3.20;;
54897;SDS011;40800;52.704;6.398;2023-04-20T03:53:45;6.97;;;2.92;;
54897;SDS011;40800;52.704;6.398;2023-04-20T03:56:10;7.95;;;3.30;;
54897;SDS011;40800;52.704;6.398;2023-04-20T03:58:36;5.18;;;3.25;;
54897;SDS011;40800;52.704;6.398;2023-04-20T04:01:05;4.88;;;2.92;;
54897;SDS011;40800;52.704;6.398;2023-04-20T04:03:34;4.57;;;3.25;;
54897;SDS011;40800;52.704;6.398;2023-04-20T04:06:00;6.95;;;3.45;;
54897;SDS011;40800;52.704;6.398;2023-04-20T04:08:26;5.23;;;3.23;;
54897;SDS011;40800;52.704;6.398;2023-04-20T04:10:51;6.07;;;2.85;;
54897;SDS011;40800;52.704;6.398;2023-04-20T04:13:17;7.53;;;3.38;;
54897;SDS011;40800;52.704;6.398;2023-04-20T04:15:42;5.18;;;3.10;;
54897;SDS011;40800;52.704;6.398;2023-04-20T04:18:08;5.80;;;2.92;;
54897;SDS011;40800;52.704;6.398;2023-04-20T04:20:34;5.55;;;3.10;;
54897;SDS011;40800;52.704;6.398;2023-04-20T04:22:59;6.07;;;3.30;;
54897;SDS011;40800;52.704;6.398;2023-04-20T04:25:25;6.25;;;2.88;;
54897;SDS011;40800;52.704;6.398;2023-04-20T04:27:51;7.35;;;3.63;;
54897;SDS011;40800;52.704;6.398;2023-04-20T04:30:17;4.68;;;3.25;;
54897;SDS011;40800;52.704;6.398;2023-04-20T04:32:44;5.72;;;3.13;;
54897;SDS011;40800;52.704;6.398;2023-04-20T04:35:10;7.43;;;3.42;;
54897;SDS011;40800;52.704;6.398;2023-04-20T04:37:37;5.60;;;3.08;;
54897;SDS011;40800;52.704;6.398;2023-04-20T04:40:03;7.70;;;3.55;;
54897;SDS011;40800;52.704;6.398;2023-04-20T04:42:31;7.57;;;3.35;;
54897;SDS011;40800;52.704;6.398;2023-04-20T04:44:58;5.90;;;3.40;;
54897;SDS011;40800;52.704;6.398;2023-04-20T04:47:26;5.53;;;3.25;;
54897;SDS011;40800;52.704;6.398;2023-04-20T04:49:53;7.88;;;3.60;;
54897;SDS011;40800;52.704;6.398;2023-04-20T04:52:19;9.88;;;3.35;;
54897;SDS011;40800;52.704;6.398;2023-04-20T04:54:45;5.93;;;3.40;;
54897;SDS011;40800;52.704;6.398;2023-04-20T04:57:11;6.30;;;3.28;;
54897;SDS011;40800;52.704;6.398;2023-04-20T04:59:36;4.88;;;3.10;;
54897;SDS011;40800;52.704;6.398;2023-04-20T05:02:02;5.22;;;3.30;;
54897;SDS011;40800;52.704;6.398;2023-04-20T05:04:27;5.63;;;3.47;;
54897;SDS011;40800;52.704;6.398;2023-04-20T05:06:53;5.50;;;3.53;;
54897;SDS011;40800;52.704;6.398;2023-04-20T05:09:18;4.60;;;3.08;;
54897;SDS011;40800;52.704;6.398;2023-04-20T05:11:44;6.78;;;3.30;;
54897;SDS011;40800;52.704;6.398;2023-04-20T05:14:09;6.28;;;3.58;;
54897;SDS011;40800;52.704;6.398;2023-04-20T05:16:35;4.50;;;3.00;;
54897;SDS011;40800;52.704;6.398;2023-04-20T05:19:00;7.20;;;3.90;;
54897;SDS011;40800;52.704;6.398;2023-04-20T05:21:26;5.30;;;3.30;;
54897;SDS011;40800;52.704;6.398;2023-04-20T05:23:52;8.02;;;3.40;;
54897;SDS011;40800;52.704;6.398;2023-04-20T05:26:17;8.60;;;3.47;;
54897;SDS011;40800;52.704;6.398;2023-04-20T05:28:43;8.00;;;3.55;;
54897;SDS011;40800;52.704;6.398;2023-04-20T05:31:08;6.15;;;3.65;;
54897;SDS011;40800;52.704;6.398;2023-04-20T05:33:34;6.30;;;3.22;;
54897;SDS011;40800;52.704;6.398;2023-04-20T05:36:00;9.35;;;3.45;;
54897;SDS011;40800;52.704;6.398;2023-04-20T05:38:25;6.25;;;3.75;;
54897;SDS011;40800;52.704;6.398;2023-04-20T05:40:51;5.95;;;3.33;;
54897;SDS011;40800;52.704;6.398;2023-04-20T05:43:17;5.70;;;3.63;;
54897;SDS011;40800;52.704;6.398;2023-04-20T05:45:43;8.27;;;3.40;;
54897;SDS011;40800;52.704;6.398;2023-04-20T05:50:36;6.53;;;3.42;;
54897;SDS011;40800;52.704;6.398;2023-04-20T05:53:01;7.15;;;3.60;;
54897;SDS011;40800;52.704;6.398;2023-04-20T05:55:27;6.72;;;3.65;;
54897;SDS011;40800;52.704;6.398;2023-04-20T05:57:52;5.75;;;3.78;;
54897;SDS011;40800;52.704;6.398;2023-04-20T06:00:20;8.43;;;3.53;;
54897;SDS011;40800;52.704;6.398;2023-04-20T06:02:46;7.35;;;3.70;;
54897;SDS011;40800;52.704;6.398;2023-04-20T06:05:12;5.05;;;3.40;;
54897;SDS011;40800;52.704;6.398;2023-04-20T06:07:37;7.43;;;3.72;;
54897;SDS011;40800;52.704;6.398;2023-04-20T06:10:03;6.80;;;3.70;;
54897;SDS011;40800;52.704;6.398;2023-04-20T06:12:30;12.35;;;3.50;;
54897;SDS011;40800;52.704;6.398;2023-04-20T06:14:56;5.50;;;3.58;;
54897;SDS011;40800;52.704;6.398;2023-04-20T06:17:22;6.43;;;3.65;;
54897;SDS011;40800;52.704;6.398;2023-04-20T06:19:47;5.75;;;3.22;;
54897;SDS011;40800;52.704;6.398;2023-04-20T06:22:13;6.28;;;3.80;;
54897;SDS011;40800;52.704;6.398;2023-04-20T06:24:39;5.90;;;4.18;;
54897;SDS011;40800;52.704;6.398;2023-04-20T06:27:06;6.40;;;4.30;;
54897;SDS011;40800;52.704;6.398;2023-04-20T06:29:32;5.22;;;4.20;;
54897;SDS011;40800;52.704;6.398;2023-04-20T06:31:58;7.25;;;4.28;;
54897;SDS011;40800;52.704;6.398;2023-04-20T06:34:23;7.13;;;4.35;;
54897;SDS011;40800;52.704;6.398;2023-04-20T06:36:49;6.22;;;4.55;;
54897;SDS011;40800;52.704;6.398;2023-04-20T06:39:15;6.25;;;4.85;;
54897;SDS011;40800;52.704;6.398;2023-04-20T06:41:41;7.05;;;4.93;;
54897;SDS011;40800;52.704;6.398;2023-04-20T06:44:07;7.63;;;5.32;;
54897;SDS011;40800;52.704;6.398;2023-04-20T06:46:32;7.15;;;5.85;;
54897;SDS011;40800;52.704;6.398;2023-04-20T06:48:58;6.60;;;5.50;;
54897;SDS011;40800;52.704;6.398;2023-04-20T06:51:24;7.47;;;6.50;;
54897;SDS011;40800;52.704;6.398;2023-04-20T06:53:51;7.40;;;6.50;;
54897;SDS011;40800;52.704;6.398;2023-04-20T06:56:20;9.68;;;6.88;;
54897;SDS011;40800;52.704;6.398;2023-04-20T06:58:45;8.82;;;7.90;;
54897;SDS011;40800;52.704;6.398;2023-04-20T07:01:11;9.30;;;8.40;;
54897;SDS011;40800;52.704;6.398;2023-04-20T07:03:37;9.80;;;8.80;;
54897;SDS011;40800;52.704;6.398;2023-04-20T07:06:02;10.35;;;9.35;;
54897;SDS011;40800;52.704;6.398;2023-04-20T07:08:28;10.73;;;9.83;;
54897;SDS011;40800;52.704;6.398;2023-04-20T07:10:54;10.90;;;10.00;;
54897;SDS011;40800;52.704;6.398;2023-04-20T07:13:20;11.40;;;10.40;;
54897;SDS011;40800;52.704;6.398;2023-04-20T07:15:45;11.57;;;10.50;;
54897;SDS011;40800;52.704;6.398;2023-04-20T07:18:11;11.98;;;11.02;;
54897;SDS011;40800;52.704;6.398;2023-04-20T07:20:36;12.90;;;11.82;;
54897;SDS011;40800;52.704;6.398;2023-04-20T07:23:02;12.68;;;11.60;;
54897;SDS011;40800;52.704;6.398;2023-04-20T07:25:27;12.18;;;11.23;;
54897;SDS011;40800;52.704;6.398;2023-04-20T07:27:55;12.77;;;11.60;;
54897;SDS011;40800;52.704;6.398;2023-04-20T07:30:21;13.20;;;11.90;;
54897;SDS011;40800;52.704;6.398;2023-04-20T07:32:47;13.07;;;11.90;;
54897;SDS011;40800;52.704;6.398;2023-04-20T07:35:13;12.60;;;11.60;;
54897;SDS011;40800;52.704;6.398;2023-04-20T07:37:38;12.70;;;11.65;;
54897;SDS011;40800;52.704;6.398;2023-04-20T07:40:04;12.98;;;11.88;;
54897;SDS011;40800;52.704;6.398;2023-04-20T07:42:31;12.57;;;11.63;;
54897;SDS011;40800;52.704;6.398;2023-04-20T07:44:58;12.40;;;11.38;;
54897;SDS011;40800;52.704;6.398;2023-04-20T07:47:23;13.00;;;11.90;;
54897;SDS011;40800;52.704;6.398;2023-04-20T07:49:49;12.40;;;11.40;;
54897;SDS011;40800;52.704;6.398;2023-04-20T07:52:15;12.60;;;11.50;;
54897;SDS011;40800;52.704;6.398;2023-04-20T07:54:42;12.45;;;11.45;;
54897;SDS011;40800;52.704;6.398;2023-04-20T07:57:08;12.38;;;11.30;;
54897;SDS011;40800;52.704;6.398;2023-04-20T07:59:34;12.73;;;11.60;;
54897;SDS011;40800;52.704;6.398;2023-04-20T08:02:00;12.55;;;11.65;;
54897;SDS011;40800;52.704;6.398;2023-04-20T08:04:26;13.10;;;12.10;;
54897;SDS011;40800;52.704;6.398;2023-04-20T08:06:52;12.77;;;11.70;;
54897;SDS011;40800;52.704;6.398;2023-04-20T08:09:18;12.88;;;11.80;;
54897;SDS011;40800;52.704;6.398;2023-04-20T08:11:44;12.63;;;11.55;;
54897;SDS011;40800;52.704;6.398;2023-04-20T08:14:10;12.35;;;11.32;;
54897;SDS011;40800;52.704;6.398;2023-04-20T08:16:36;12.65;;;11.70;;
54897;SDS011;40800;52.704;6.398;2023-04-20T08:19:02;12.43;;;11.38;;
54897;SDS011;40800;52.704;6.398;2023-04-20T08:21:34;12.48;;;11.18;;
54897;SDS011;40800;52.704;6.398;2023-04-20T08:24:00;13.00;;;11.90;;
54897;SDS011;40800;52.704;6.398;2023-04-20T08:26:26;12.60;;;11.40;;
54897;SDS011;40800;52.704;6.398;2023-04-20T08:28:51;12.52;;;11.52;;
54897;SDS011;40800;52.704;6.398;2023-04-20T08:31:17;12.48;;;11.40;;
54897;SDS011;40800;52.704;6.398;2023-04-20T08:33:42;13.18;;;11.82;;
54897;SDS011;40800;52.704;6.398;2023-04-20T08:36:08;12.40;;;11.40;;
54897;SDS011;40800;52.704;6.398;2023-04-20T08:38:34;11.82;;;10.73;;
54897;SDS011;40800;52.704;6.398;2023-04-20T08:41:00;12.95;;;11.75;;
54897;SDS011;40800;52.704;6.398;2023-04-20T08:43:26;13.02;;;11.90;;
54897;SDS011;40800;52.704;6.398;2023-04-20T08:45:51;13.00;;;11.65;;
54897;SDS011;40800;52.704;6.398;2023-04-20T08:48:24;13.05;;;11.82;;
54897;SDS011;40800;52.704;6.398;2023-04-20T08:50:52;12.43;;;11.43;;
54897;SDS011;40800;52.704;6.398;2023-04-20T08:53:18;12.60;;;11.48;;
54897;SDS011;40800;52.704;6.398;2023-04-20T08:55:44;12.20;;;11.10;;
54897;SDS011;40800;52.704;6.398;2023-04-20T08:58:12;12.95;;;11.73;;
54897;SDS011;40800;52.704;6.398;2023-04-20T09:00:47;12.60;;;11.40;;
54897;SDS011;40800;52.704;6.398;2023-04-20T09:03:13;11.88;;;10.88;;
54897;SDS011;40800;52.704;6.398;2023-04-20T09:05:39;12.55;;;11.25;;
54897;SDS011;40800;52.704;6.398;2023-04-20T09:08:05;12.23;;;11.02;;
54897;SDS011;40800;52.704;6.398;2023-04-20T09:13:05;12.00;;;11.00;;
54897;SDS011;40800;52.704;6.398;2023-04-20T09:15:31;12.80;;;11.60;;
54897;SDS011;40800;52.704;6.398;2023-04-20T09:17:57;13.57;;;11.98;;
54897;SDS011;40800;52.704;6.398;2023-04-20T09:20:40;12.65;;;11.45;;
54897;SDS011;40800;52.704;6.398;2023-04-20T09:23:09;12.70;;;11.43;;
54897;SDS011;40800;52.704;6.398;2023-04-20T09:25:36;12.43;;;11.23;;
54897;SDS011;40800;52.704;6.398;2023-04-20T09:28:02;13.93;;;10.93;;
54897;SDS011;40800;52.704;6.398;2023-04-20T09:30:37;13.13;;;11.77;;
54897;SDS011;40800;52.704;6.398;2023-04-20T09:33:07;12.43;;;11.23;;
54897;SDS011;40800;52.704;6.398;2023-04-20T09:35:35;13.05;;;11.77;;
54897;SDS011;40800;52.704;6.398;2023-04-20T09:38:08;11.63;;;10.63;;
54897;SDS011;40800;52.704;6.398;2023-04-20T09:40:35;12.27;;;11.18;;
54897;SDS011;40800;52.704;6.398;2023-04-20T09:43:12;12.18;;;11.00;;
54897;SDS011;40800;52.704;6.398;2023-04-20T09:45:42;13.75;;;10.63;;
54897;SDS011;40800;52.704;6.398;2023-04-20T09:48:08;11.63;;;10.52;;
54897;SDS011;40800;52.704;6.398;2023-04-20T09:50:35;12.52;;;11.30;;
54897;SDS011;40800;52.704;6.398;2023-04-20T09:53:04;11.52;;;10.48;;
54897;SDS011;40800;52.704;6.398;2023-04-20T09:55:30;11.88;;;10.40;;
54897;SDS011;40800;52.704;6.398;2023-04-20T09:57:56;11.88;;;10.68;;
54897;SDS011;40800;52.704;6.398;2023-04-20T10:00:25;11.60;;;10.45;;
54897;SDS011;40800;52.704;6.398;2023-04-20T10:02:51;13.07;;;10.73;;
54897;SDS011;40800;52.704;6.398;2023-04-20T10:05:17;11.77;;;10.57;;
54897;SDS011;40800;52.704;6.398;2023-04-20T10:07:43;12.23;;;11.00;;
54897;SDS011;40800;52.704;6.398;2023-04-20T10:10:09;10.98;;;9.88;;
54897;SDS011;40800;52.704;6.398;2023-04-20T10:12:50;11.35;;;10.35;;
54897;SDS011;40800;52.704;6.398;2023-04-20T10:15:17;11.55;;;10.18;;
54897;SDS011;40800;52.704;6.398;2023-04-20T10:17:43;11.45;;;10.30;;
54897;SDS011;40800;52.704;6.398;2023-04-20T10:20:23;10.57;;;9.55;;
54897;SDS011;40800;52.704;6.398;2023-04-20T10:22:50;10.35;;;9.20;;
54897;SDS011;40800;52.704;6.398;2023-04-20T10:25:17;12.18;;;10.88;;
54897;SDS011;40800;52.704;6.398;2023-04-20T10:27:54;11.50;;;10.30;;
54897;SDS011;40800;52.704;6.398;2023-04-20T10:30:21;16.48;;;10.65;;
54897;SDS011;40800;52.704;6.398;2023-04-20T10:32:48;11.48;;;10.20;;
54897;SDS011;40800;52.704;6.398;2023-04-20T10:35:13;11.25;;;10.15;;
54897;SDS011;40800;52.704;6.398;2023-04-20T10:37:46;10.80;;;9.70;;
54897;SDS011;40800;52.704;6.398;2023-04-20T10:40:13;10.75;;;9.65;;
54897;SDS011;40800;52.704;6.398;2023-04-20T10:42:45;10.90;;;9.80;;
54897;SDS011;40800;52.704;6.398;2023-04-20T10:45:11;10.15;;;9.15;;
54897;SDS011;40800;52.704;6.398;2023-04-20T10:47:36;10.43;;;9.15;;
54897;SDS011;40800;52.704;6.398;2023-04-20T10:50:08;12.48;;;10.13;;
54897;SDS011;40800;52.704;6.398;2023-04-20T10:52:39;11.68;;;8.77;;
54897;SDS011;40800;52.704;6.398;2023-04-20T10:55:06;11.10;;;8.50;;
54897;SDS011;40800;52.704;6.398;2023-04-20T10:57:49;9.73;;;8.75;;
54897;SDS011;40800;52.704;6.398;2023-04-20T11:00:15;9.85;;;8.85;;
54897;SDS011;40800;52.704;6.398;2023-04-20T11:02:49;10.07;;;9.00;;
54897;SDS011;40800;52.704;6.398;2023-04-20T11:05:16;10.52;;;9.20;;
54897;SDS011;40800;52.704;6.398;2023-04-20T11:07:51;11.75;;;10.20;;
54897;SDS011;40800;52.704;6.398;2023-04-20T11:10:18;10.57;;;9.48;;
54897;SDS011;40800;52.704;6.398;2023-04-20T11:15:10;10.38;;;8.73;;
54897;SDS011;40800;52.704;6.398;2023-04-20T11:17:37;10.43;;;8.95;;
54897;SDS011;40800;52.704;6.398;2023-04-20T11:22:39;10.05;;;8.85;;
54897;SDS011;40800;52.704;6.398;2023-04-20T11:25:06;10.10;;;8.73;;
54897;SDS011;40800;52.704;6.398;2023-04-20T11:27:34;11.27;;;8.60;;
54897;SDS011;40800;52.704;6.398;2023-04-20T11:30:00;9.23;;;8.30;;
54897;SDS011;40800;52.704;6.398;2023-04-20T11:32:30;9.55;;;7.75;;
54897;SDS011;40800;52.704;6.398;2023-04-20T11:34:57;9.18;;;7.25;;
54897;SDS011;40800;52.704;6.398;2023-04-20T11:37:24;9.40;;;7.40;;
54897;SDS011;40800;52.704;6.398;2023-04-20T11:40:00;10.43;;;7.43;;
54897;SDS011;40800;52.704;6.398;2023-04-20T11:42:28;8.82;;;6.93;;
54897;SDS011;40800;52.704;6.398;2023-04-20T11:44:54;9.82;;;7.45;;
54897;SDS011;40800;52.704;6.398;2023-04-20T11:47:20;10.43;;;8.30;;
54897;SDS011;40800;52.704;6.398;2023-04-20T11:49:45;9.85;;;8.10;;
54897;SDS011;40800;52.704;6.398;2023-04-20T11:52:11;7.70;;;6.90;;
54897;SDS011;40800;52.704;6.398;2023-04-20T11:54:37;10.10;;;7.88;;
54897;SDS011;40800;52.704;6.398;2023-04-20T11:57:02;9.70;;;8.38;;
54897;SDS011;40800;52.704;6.398;2023-04-20T11:59:28;10.73;;;8.68;;
54897;SDS011;40800;52.704;6.398;2023-04-20T12:01:54;11.23;;;8.50;;
54897;SDS011;40800;52.704;6.398;2023-04-20T12:04:19;11.40;;;8.55;;
54897;SDS011;40800;52.704;6.398;2023-04-20T12:06:45;10.43;;;8.93;;
54897;SDS011;40800;52.704;6.398;2023-04-20T12:09:11;11.40;;;8.77;;
54897;SDS011;40800;52.704;6.398;2023-04-20T12:11:37;10.10;;;8.38;;
54897;SDS011;40800;52.704;6.398;2023-04-20T12:14:02;11.65;;;8.68;;
54897;SDS011;40800;52.704;6.398;2023-04-20T12:16:29;10.15;;;8.68;;
54897;SDS011;40800;52.704;6.398;2023-04-20T12:18:54;10.90;;;9.30;;
54897;SDS011;40800;52.704;6.398;2023-04-20T12:21:20;11.80;;;9.15;;
54897;SDS011;40800;52.704;6.398;2023-04-20T12:23:46;10.40;;;8.38;;
54897;SDS011;40800;52.704;6.398;2023-04-20T12:26:13;8.13;;;7.22;;
54897;SDS011;40800;52.704;6.398;2023-04-20T12:28:39;9.77;;;7.80;;
54897;SDS011;40800;52.704;6.398;2023-04-20T12:31:04;11.40;;;8.20;;
54897;SDS011;40800;52.704;6.398;2023-04-20T12:33:31;10.00;;;8.38;;
54897;SDS011;40800;52.704;6.398;2023-04-20T12:35:57;12.32;;;8.40;;
54897;SDS011;40800;52.704;6.398;2023-04-20T12:38:23;11.55;;;8.85;;
54897;SDS011;40800;52.704;6.398;2023-04-20T12:40:48;10.55;;;8.60;;
54897;SDS011;40800;52.704;6.398;2023-04-20T12:43:14;9.57;;;8.52;;
54897;SDS011;40800;52.704;6.398;2023-04-20T12:45:40;11.55;;;8.07;;
54897;SDS011;40800;52.704;6.398;2023-04-20T12:48:05;10.13;;;7.85;;
54897;SDS011;40800;52.704;6.398;2023-04-20T12:50:31;9.35;;;7.78;;
54897;SDS011;40800;52.704;6.398;2023-04-20T12:52:56;9.35;;;8.07;;
54897;SDS011;40800;52.704;6.398;2023-04-20T12:55:23;10.50;;;7.72;;
54897;SDS011;40800;52.704;6.398;2023-04-20T12:57:50;10.68;;;8.00;;
54897;SDS011;40800;52.704;6.398;2023-04-20T13:00:15;9.50;;;8.25;;
54897;SDS011;40800;52.704;6.398;2023-04-20T13:02:41;10.70;;;8.95;;
54897;SDS011;40800;52.704;6.398;2023-04-20T13:05:07;9.48;;;8.35;;
54897;SDS011;40800;52.704;6.398;2023-04-20T13:07:33;10.60;;;8.82;;
54897;SDS011;40800;52.704;6.398;2023-04-20T13:09:58;9.05;;;7.93;;
54897;SDS011;40800;52.704;6.398;2023-04-20T13:12:24;12.60;;;8.40;;
54897;SDS011;40800;52.704;6.398;2023-04-20T13:14:50;10.15;;;8.05;;
54897;SDS011;40800;52.704;6.398;2023-04-20T13:17:16;10.82;;;7.72;;
54897;SDS011;40800;52.704;6.398;2023-04-20T13:19:42;12.40;;;8.77;;
54897;SDS011;40800;52.704;6.398;2023-04-20T13:22:10;10.55;;;8.35;;
54897;SDS011;40800;52.704;6.398;2023-04-20T13:24:35;10.25;;;8.30;;
54897;SDS011;40800;52.704;6.398;2023-04-20T13:27:01;11.55;;;8.43;;
54897;SDS011;40800;52.704;6.398;2023-04-20T13:29:27;10.02;;;7.70;;
54897;SDS011;40800;52.704;6.398;2023-04-20T13:31:53;10.07;;;7.65;;
54897;SDS011;40800;52.704;6.398;2023-04-20T13:34:18;10.95;;;8.18;;
54897;SDS011;40800;52.704;6.398;2023-04-20T13:36:44;10.77;;;8.32;;
54897;SDS011;40800;52.704;6.398;2023-04-20T13:39:10;9.75;;;7.55;;
54897;SDS011;40800;52.704;6.398;2023-04-20T13:41:36;12.20;;;8.10;;
54897;SDS011;40800;52.704;6.398;2023-04-20T13:44:02;9.38;;;7.88;;
54897;SDS011;40800;52.704;6.398;2023-04-20T13:46:29;10.52;;;8.20;;
54897;SDS011;40800;52.704;6.398;2023-04-20T13:48:55;12.02;;;8.30;;
54897;SDS011;40800;52.704;6.398;2023-04-20T13:51:21;9.82;;;8.20;;
54897;SDS011;40800;52.704;6.398;2023-04-20T13:53:46;9.18;;;7.95;;
54897;SDS011;40800;52.704;6.398;2023-04-20T13:56:13;11.27;;;8.15;;
54897;SDS011;40800;52.704;6.398;2023-04-20T13:58:40;8.57;;;7.35;;
54897;SDS011;40800;52.704;6.398;2023-04-20T14:01:06;10.07;;;7.90;;
54897;SDS011;40800;52.704;6.398;2023-04-20T14:03:35;10.15;;;7.25;;
54897;SDS011;40800;52.704;6.398;2023-04-20T14:06:01;9.88;;;7.65;;
54897;SDS011;40800;52.704;6.398;2023-04-20T14:08:27;9.43;;;7.50;;
54897;SDS011;40800;52.704;6.398;2023-04-20T14:10:53;9.05;;;7.20;;
54897;SDS011;40800;52.704;6.398;2023-04-20T14:13:19;9.40;;;7.07;;
54897;SDS011;40800;52.704;6.398;2023-04-20T14:15:44;10.10;;;6.60;;
54897;SDS011;40800;52.704;6.398;2023-04-20T14:18:10;8.43;;;6.65;;
54897;SDS011;40800;52.704;6.398;2023-04-20T14:20:35;8.23;;;6.65;;
54897;SDS011;40800;52.704;6.398;2023-04-20T14:23:01;9.27;;;6.80;;
54897;SDS011;40800;52.704;6.398;2023-04-20T14:25:27;9.00;;;5.97;;
54897;SDS011;40800;52.704;6.398;2023-04-20T14:27:52;7.13;;;5.88;;
54897;SDS011;40800;52.704;6.398;2023-04-20T14:30:18;8.90;;;5.88;;
54897;SDS011;40800;52.704;6.398;2023-04-20T14:32:56;8.80;;;6.10;;
54897;SDS011;40800;52.704;6.398;2023-04-20T14:35:24;7.05;;;5.65;;
54897;SDS011;40800;52.704;6.398;2023-04-20T14:37:51;8.10;;;6.35;;
54897;SDS011;40800;52.704;6.398;2023-04-20T14:40:17;9.30;;;6.55;;
54897;SDS011;40800;52.704;6.398;2023-04-20T14:42:44;9.83;;;6.33;;